Time;durP1;ratioP1;P1;durP2;ratioP2;P2;SDS_P1;SDS_P2;PMS_P1;PMS_P2;Temp;Humidity;BMP_temperature;BMP_pressure;BME280_temperature;BME280_humidity;BME280_pressure;Samples;Min_cycle;Max_cycle;Signal;HPM_P1;HPM_P2
2021/05/17 00:01:47;;;;;;;1.73;0.90;;;7.90;99.90;;;;;;5008400;28;20247;-60
2021/05/17 00:04:14;;;;;;;0.90;0.90;;;7.90;99.90;;;;;;4989915;28;20201;-60
2021/05/17 00:06:40;;;;;;;1.00;1.00;;;7.90;99.90;;;;;;4989361;28;20487;-60
2021/05/17 00:09:06;;;;;;;0.90;0.90;;;7.90;99.90;;;;;;5008802;28;20782;-60
2021/05/17 00:11:32;;;;;;;0.70;0.70;;;7.80;99.90;;;;;;5001569;28;20603;-60
2021/05/17 00:13:58;;;;;;;1.00;0.90;;;7.80;99.90;;;;;;4988296;28;20741;-60
2021/05/17 00:16:23;;;;;;;5.10;0.97;;;7.80;99.90;;;;;;4987456;28;20280;-60
2021/05/17 00:18:50;;;;;;;1.00;1.00;;;7.80;99.90;;;;;;4988351;28;20872;-59
2021/05/17 00:21:16;;;;;;;0.80;0.80;;;7.80;99.90;;;;;;4993748;28;20583;-59
2021/05/17 00:23:42;;;;;;;0.80;0.80;;;7.80;99.90;;;;;;5013703;28;20418;-63
2021/05/17 00:26:07;;;;;;;1.03;0.90;;;7.80;99.90;;;;;;5008980;28;20240;-60
2021/05/17 00:28:33;;;;;;;2.53;0.90;;;7.70;99.90;;;;;;5015758;28;20165;-60
2021/05/17 00:30:59;;;;;;;0.80;0.80;;;7.70;99.90;;;;;;4999203;28;20242;-60
2021/05/17 00:33:25;;;;;;;6.30;1.97;;;7.70;99.90;;;;;;5008445;28;20468;-60
2021/05/17 00:35:51;;;;;;;0.83;0.83;;;7.70;99.90;;;;;;5007846;28;20585;-59
2021/05/17 00:38:18;;;;;;;2.20;1.30;;;7.60;99.90;;;;;;5002058;28;21027;-59
2021/05/17 00:40:45;;;;;;;1.50;1.07;;;7.60;99.90;;;;;;5007705;28;20529;-60
2021/05/17 00:43:12;;;;;;;0.70;0.70;;;7.60;99.90;;;;;;5020347;28;20456;-60
2021/05/17 00:45:38;;;;;;;0.80;0.80;;;7.60;99.90;;;;;;5009104;28;20463;-60
2021/05/17 00:48:04;;;;;;;0.70;0.70;;;7.60;99.90;;;;;;4988984;28;20474;-59
2021/05/17 00:50:30;;;;;;;1.13;1.00;;;7.50;99.90;;;;;;4989333;28;20795;-59
2021/05/17 00:52:57;;;;;;;0.70;0.67;;;7.50;99.90;;;;;;4990297;28;20457;-60
2021/05/17 00:55:24;;;;;;;1.20;1.10;;;7.50;99.90;;;;;;4988735;28;20300;-60
2021/05/17 00:57:50;;;;;;;2.40;0.83;;;7.50;99.90;;;;;;4989430;28;20533;-59
2021/05/17 01:00:21;;;;;;;1.20;0.80;;;7.50;99.90;;;;;;5000873;28;20450;-59
2021/05/17 01:02:47;;;;;;;0.80;0.70;;;7.40;99.90;;;;;;4994153;28;20438;-60
2021/05/17 01:05:13;;;;;;;2.40;0.70;;;7.40;99.90;;;;;;4989189;28;20456;-60
2021/05/17 01:07:45;;;;;;;1.47;0.80;;;7.40;99.90;;;;;;5000584;28;20201;-59
2021/05/17 01:10:13;;;;;;;1.10;1.10;;;7.40;99.90;;;;;;5010008;28;20403;-60
2021/05/17 01:12:40;;;;;;;1.60;1.10;;;7.40;99.90;;;;;;5001196;28;20439;-61
2021/05/17 01:15:06;;;;;;;1.10;1.00;;;7.40;99.90;;;;;;5000510;28;20939;-60
2021/05/17 01:17:33;;;;;;;1.93;0.93;;;7.30;99.90;;;;;;5010172;28;20439;-59
2021/05/17 01:20:10;;;;;;;0.90;0.90;;;7.30;99.90;;;;;;5010280;28;20426;-61
2021/05/17 01:22:51;;;;;;;0.90;0.90;;;7.20;99.90;;;;;;5009566;28;20854;-59
2021/05/17 01:25:20;;;;;;;1.83;0.70;;;7.20;99.90;;;;;;5001241;28;20618;-59
2021/05/17 01:27:47;;;;;;;1.27;0.80;;;7.20;99.90;;;;;;4993981;28;20582;-59
2021/05/17 01:30:14;;;;;;;2.37;1.10;;;7.10;99.90;;;;;;5012136;28;20407;-59
2021/05/17 01:32:41;;;;;;;0.93;0.93;;;7.20;99.90;;;;;;4992945;28;20531;-60
2021/05/17 01:35:09;;;;;;;0.90;0.90;;;7.10;99.90;;;;;;4996678;28;20435;-60
2021/05/17 01:37:38;;;;;;;0.97;0.80;;;7.10;99.90;;;;;;4995986;28;20483;-59
2021/05/17 01:40:06;;;;;;;2.17;1.13;;;7.10;99.90;;;;;;4992733;28;20440;-59
2021/05/17 01:42:33;;;;;;;3.73;1.40;;;7.00;99.90;;;;;;4992177;28;20507;-59
2021/05/17 01:45:02;;;;;;;1.77;1.10;;;7.00;99.90;;;;;;4991657;28;20456;-58
2021/05/17 01:47:30;;;;;;;2.23;1.33;;;7.00;99.90;;;;;;4991563;28;20558;-59
2021/05/17 01:49:58;;;;;;;4.03;1.67;;;7.00;99.90;;;;;;4991920;28;20401;-59
2021/05/17 01:52:25;;;;;;;4.73;1.50;;;6.90;99.90;;;;;;5001807;28;20436;-59
2021/05/17 01:54:52;;;;;;;2.87;1.70;;;6.90;99.90;;;;;;5009808;28;20962;-59
2021/05/17 01:57:20;;;;;;;2.00;1.40;;;6.80;99.90;;;;;;5012220;28;20458;-60
2021/05/17 01:59:46;;;;;;;2.57;1.50;;;6.80;99.90;;;;;;5003268;28;20427;-59
2021/05/17 02:02:11;;;;;;;1.80;1.20;;;6.80;99.90;;;;;;5003832;28;20485;-59
2021/05/17 02:04:37;;;;;;;1.50;1.40;;;6.80;99.90;;;;;;5009962;28;20448;-60
2021/05/17 02:07:04;;;;;;;1.57;0.90;;;6.80;99.90;;;;;;5001594;28;20196;-60
2021/05/17 02:09:36;;;;;;;1.00;0.90;;;6.80;99.90;;;;;;5011026;28;20161;-60
2021/05/17 02:12:03;;;;;;;1.77;1.20;;;6.80;99.90;;;;;;5006692;28;20558;-59
2021/05/17 02:14:30;;;;;;;1.20;1.10;;;6.80;99.90;;;;;;4992189;28;20459;-59
2021/05/17 02:16:56;;;;;;;1.30;1.20;;;6.80;99.90;;;;;;4990536;28;20834;-59
2021/05/17 02:19:23;;;;;;;1.57;1.33;;;6.80;99.90;;;;;;4998953;28;20423;-59
2021/05/17 02:21:49;;;;;;;1.97;1.43;;;6.80;99.90;;;;;;4991369;28;20176;-60
2021/05/17 02:24:15;;;;;;;1.20;1.10;;;6.80;99.90;;;;;;4992532;28;20532;-58
2021/05/17 02:26:42;;;;;;;1.30;1.20;;;6.90;99.90;;;;;;4998281;28;20450;-59
2021/05/17 02:29:09;;;;;;;1.13;1.03;;;6.90;99.90;;;;;;5013587;28;20554;-59
2021/05/17 02:31:35;;;;;;;1.20;1.10;;;6.80;99.90;;;;;;5005038;28;20427;-59
2021/05/17 02:34:02;;;;;;;1.70;1.00;;;6.80;99.90;;;;;;5009976;28;20438;-59
2021/05/17 02:36:28;;;;;;;1.13;1.03;;;6.80;99.90;;;;;;5010505;28;21030;-59
2021/05/17 02:38:56;;;;;;;2.23;1.30;;;6.80;99.90;;;;;;4996312;28;20842;-60
2021/05/17 02:41:23;;;;;;;1.63;0.97;;;6.80;99.90;;;;;;5010186;28;20450;-61
2021/05/17 02:43:49;;;;;;;2.10;1.30;;;6.80;99.90;;;;;;4997329;28;20534;-59
2021/05/17 02:46:16;;;;;;;1.13;1.03;;;6.80;99.90;;;;;;4987785;28;20501;-60
2021/05/17 02:48:43;;;;;;;1.80;1.10;;;6.80;99.90;;;;;;5004097;28;20802;-60
2021/05/17 02:51:10;;;;;;;4.40;1.30;;;6.70;99.90;;;;;;4993491;28;20595;-59
2021/05/17 02:53:36;;;;;;;1.30;1.20;;;6.70;99.90;;;;;;5007671;28;20416;-59
2021/05/17 02:56:13;;;;;;;1.73;1.57;;;6.70;99.90;;;;;;4990433;28;20919;-59
2021/05/17 02:58:41;;;;;;;3.17;1.03;;;6.70;99.90;;;;;;4990944;28;20435;-60
2021/05/17 03:01:09;;;;;;;4.07;1.60;;;6.70;99.90;;;;;;4990221;28;20487;-60
2021/05/17 03:03:43;;;;;;;4.33;2.50;;;6.70;99.90;;;;;;4990585;28;20408;-60
2021/05/17 03:06:36;;;;;;;2.60;1.60;;;6.70;99.90;;;;;;4989325;28;20472;-60
2021/05/17 03:09:05;;;;;;;2.37;1.53;;;6.70;99.90;;;;;;4988471;28;20864;-60
2021/05/17 03:11:34;;;;;;;5.40;1.80;;;6.80;99.90;;;;;;5008725;28;20459;-60
2021/05/17 03:14:02;;;;;;;4.17;2.10;;;6.80;99.90;;;;;;5008877;28;20415;-59
2021/05/17 03:16:29;;;;;;;4.40;1.60;;;6.80;99.90;;;;;;5002041;28;20452;-60
2021/05/17 03:18:56;;;;;;;3.97;1.70;;;6.90;99.90;;;;;;4987731;28;20436;-59
2021/05/17 03:21:24;;;;;;;7.97;1.80;;;6.90;99.90;;;;;;5006101;28;20414;-60
2021/05/17 03:23:52;;;;;;;5.80;2.10;;;6.90;99.90;;;;;;5004609;28;20506;-59
2021/05/17 03:26:21;;;;;;;5.00;2.07;;;6.90;99.90;;;;;;5008414;28;20967;-59
2021/05/17 03:28:47;;;;;;;8.43;1.90;;;6.90;99.90;;;;;;5004703;28;20478;-59
2021/05/17 03:31:13;;;;;;;4.23;1.77;;;7.00;99.90;;;;;;4994785;28;20428;-59
2021/05/17 03:33:38;;;;;;;9.40;3.07;;;7.00;99.90;;;;;;5007524;28;20418;-59
2021/05/17 03:36:05;;;;;;;9.40;2.03;;;7.00;99.90;;;;;;4996347;28;20701;-61
2021/05/17 03:38:31;;;;;;;4.40;1.70;;;7.00;99.90;;;;;;4990247;28;20200;-60
2021/05/17 03:40:56;;;;;;;2.40;1.80;;;7.10;99.90;;;;;;4989709;28;20957;-59
2021/05/17 03:43:22;;;;;;;7.97;1.80;;;7.10;99.90;;;;;;5008033;28;20431;-59
2021/05/17 03:45:47;;;;;;;3.50;1.67;;;7.10;99.90;;;;;;5007940;28;20204;-59
2021/05/17 03:48:13;;;;;;;2.60;1.50;;;7.10;99.90;;;;;;5007979;28;20183;-59
2021/05/17 03:50:39;;;;;;;5.63;1.57;;;7.20;99.90;;;;;;5000189;28;20196;-60
2021/05/17 03:53:04;;;;;;;12.03;2.00;;;7.20;99.90;;;;;;4989211;28;20189;-59
2021/05/17 03:55:30;;;;;;;5.53;2.00;;;7.20;99.90;;;;;;5018347;28;20176;-59
2021/05/17 03:57:58;;;;;;;7.50;1.63;;;7.20;99.90;;;;;;5015399;28;20201;-59
2021/05/17 04:00:26;;;;;;;9.33;1.90;;;7.20;99.90;;;;;;5001484;28;20172;-60
2021/05/17 04:02:52;;;;;;;3.37;1.57;;;7.30;99.90;;;;;;4997267;28;20535;-58
2021/05/17 04:15:44;;;;;;;4.70;1.90;;;7.30;99.90;;;;;;4988095;28;20501;-60
2021/05/17 04:18:10;;;;;;;7.20;1.90;;;7.30;99.90;;;;;;4994705;28;21081;-59
2021/05/17 04:20:36;;;;;;;3.87;1.97;;;7.30;99.90;;;;;;4998131;28;20610;-61
2021/05/17 04:23:01;;;;;;;7.60;1.80;;;7.30;99.90;;;;;;4994903;28;20963;-59
2021/05/17 04:25:27;;;;;;;5.30;2.13;;;7.30;99.90;;;;;;4995082;28;20272;-60
2021/05/17 04:27:53;;;;;;;1.90;1.50;;;7.30;99.90;;;;;;5000648;28;20197;-59
2021/05/17 04:30:19;;;;;;;2.90;1.70;;;7.40;99.90;;;;;;4998611;28;20434;-59
2021/05/17 04:32:44;;;;;;;7.57;2.10;;;7.30;99.90;;;;;;5001096;28;20176;-60
2021/05/17 04:35:11;;;;;;;3.00;1.80;;;7.40;99.90;;;;;;4991870;28;20662;-58
2021/05/17 04:37:36;;;;;;;4.00;2.33;;;7.40;99.90;;;;;;4998366;28;20208;-59
2021/05/17 04:40:04;;;;;;;6.50;2.10;;;7.50;99.90;;;;;;5003536;28;20443;-60
2021/05/17 04:42:30;;;;;;;4.47;1.97;;;7.50;99.90;;;;;;4990105;28;20417;-59
2021/05/17 04:44:55;;;;;;;3.47;1.60;;;7.50;99.90;;;;;;5001544;28;20483;-59
2021/05/17 04:47:21;;;;;;;5.10;1.87;;;7.60;99.90;;;;;;4995134;28;20279;-61
2021/05/17 04:49:46;;;;;;;5.80;2.40;;;7.60;99.90;;;;;;5000068;28;21243;-60
2021/05/17 04:52:12;;;;;;;3.70;2.13;;;7.60;99.90;;;;;;5002046;28;20244;-60
2021/05/17 04:54:38;;;;;;;2.97;1.73;;;7.60;99.90;;;;;;5002334;28;20697;-60
2021/05/17 04:57:04;;;;;;;2.90;1.73;;;7.60;99.90;;;;;;4997531;28;20458;-60
2021/05/17 04:59:29;;;;;;;3.90;1.87;;;7.60;99.90;;;;;;4996796;28;20180;-60
2021/05/17 05:01:55;;;;;;;7.37;2.40;;;7.70;99.90;;;;;;4994895;28;20186;-60
2021/05/17 05:04:20;;;;;;;5.50;1.70;;;7.70;99.90;;;;;;4996222;28;20256;-59
2021/05/17 05:06:46;;;;;;;6.37;1.83;;;7.70;99.90;;;;;;4999061;28;20188;-60
2021/05/17 05:09:12;;;;;;;7.10;1.97;;;7.70;99.90;;;;;;5002954;28;20180;-60
2021/05/17 05:11:37;;;;;;;3.40;1.67;;;7.70;99.90;;;;;;4994749;28;20177;-59
2021/05/17 05:14:03;;;;;;;8.73;2.27;;;7.70;99.90;;;;;;4997431;28;20173;-60
2021/05/17 05:16:29;;;;;;;7.33;1.93;;;7.70;99.90;;;;;;4996399;28;20195;-60
2021/05/17 05:18:55;;;;;;;5.73;1.63;;;7.80;99.90;;;;;;5005807;28;20438;-59
2021/05/17 05:21:21;;;;;;;3.23;1.93;;;7.70;99.90;;;;;;5003938;28;20794;-61
2021/05/17 05:23:47;;;;;;;4.50;1.93;;;7.80;99.90;;;;;;5002545;28;20185;-61
2021/05/17 05:31:27;;;;;;;4.30;1.63;;;7.90;99.90;;;;;;4989924;28;20967;-59
2021/05/17 05:33:52;;;;;;;5.43;1.97;;;7.90;99.90;;;;;;4997254;28;20454;-59
2021/05/17 05:36:18;;;;;;;8.83;1.90;;;7.90;99.90;;;;;;4991892;28;21047;-60
2021/05/17 05:38:44;;;;;;;6.33;1.77;;;7.90;99.90;;;;;;4997117;28;20181;-59
2021/05/17 05:41:09;;;;;;;7.87;2.00;;;7.90;99.90;;;;;;5000926;28;20184;-59
2021/05/17 05:43:35;;;;;;;8.03;2.03;;;8.00;99.90;;;;;;4996060;28;20220;-60
2021/05/17 05:46:01;;;;;;;5.97;1.93;;;8.00;99.90;;;;;;4997569;28;20731;-59
2021/05/17 05:48:27;;;;;;;4.13;2.20;;;8.10;99.90;;;;;;5003518;28;20216;-59
2021/05/17 05:50:52;;;;;;;8.13;1.60;;;8.10;99.90;;;;;;4993849;28;21019;-60
2021/05/17 05:53:18;;;;;;;10.33;2.00;;;8.10;99.90;;;;;;4994159;28;20173;-60
2021/05/17 05:55:46;;;;;;;4.63;1.60;;;8.10;99.90;;;;;;4993271;28;20267;-60
2021/05/17 05:58:13;;;;;;;13.23;1.83;;;8.10;99.90;;;;;;5005141;28;20826;-60
2021/05/17 06:00:39;;;;;;;1.40;1.30;;;8.10;99.90;;;;;;4997422;28;20522;-59
2021/05/17 06:03:05;;;;;;;2.83;1.20;;;8.10;99.90;;;;;;4991892;28;20530;-60
2021/05/17 06:05:32;;;;;;;1.60;1.50;;;8.20;99.90;;;;;;4991871;28;20464;-59
2021/05/17 06:07:59;;;;;;;3.40;1.70;;;8.20;99.90;;;;;;5000110;28;20448;-60
2021/05/17 06:10:25;;;;;;;5.93;1.40;;;8.10;99.90;;;;;;4997067;28;20539;-61
2021/05/17 06:12:51;;;;;;;4.50;1.50;;;8.10;99.90;;;;;;4995426;28;20787;-60
2021/05/17 06:15:19;;;;;;;5.03;1.80;;;8.10;99.90;;;;;;4989955;28;20522;-60
2021/05/17 06:17:48;;;;;;;1.60;1.17;;;8.10;99.90;;;;;;4995080;28;20483;-61
2021/05/17 06:20:14;;;;;;;3.63;1.33;;;8.10;99.90;;;;;;4991266;28;20941;-59
2021/05/17 06:22:40;;;;;;;9.80;1.80;;;8.20;99.90;;;;;;4989763;28;20447;-60
2021/05/17 06:25:15;;;;;;;1.63;1.33;;;8.20;99.90;;;;;;4999659;28;20521;-59
2021/05/17 06:27:42;;;;;;;4.63;1.30;;;8.20;99.90;;;;;;4993256;28;20451;-60
2021/05/17 06:30:11;;;;;;;1.73;1.30;;;8.20;99.90;;;;;;4989326;28;20466;-60
2021/05/17 06:32:38;;;;;;;2.47;1.40;;;8.20;99.90;;;;;;4991370;28;22175;-61
2021/05/17 06:35:07;;;;;;;0.83;0.83;;;8.30;99.90;;;;;;4992711;28;20968;-60
2021/05/17 06:37:33;;;;;;;2.00;1.00;;;8.40;99.90;;;;;;5007156;28;20486;-59
2021/05/17 06:39:59;;;;;;;3.43;1.10;;;8.40;99.90;;;;;;4995574;28;20467;-61
2021/05/17 06:42:24;;;;;;;2.20;1.10;;;8.50;99.90;;;;;;5001229;28;20184;-60
2021/05/17 06:44:50;;;;;;;2.60;0.93;;;8.60;99.90;;;;;;4998621;28;20616;-60
2021/05/17 06:47:17;;;;;;;1.20;0.90;;;8.60;99.90;;;;;;4989427;28;20283;-60
2021/05/17 06:49:43;;;;;;;4.43;1.00;;;8.70;99.90;;;;;;5000919;28;20172;-61
2021/05/17 06:52:13;;;;;;;1.37;0.80;;;8.70;99.90;;;;;;4992379;28;20955;-60
2021/05/17 06:54:41;;;;;;;1.47;1.20;;;8.70;99.90;;;;;;4995908;28;20196;-59
2021/05/17 06:57:15;;;;;;;1.00;0.90;;;8.70;99.90;;;;;;4995151;28;20938;-60
2021/05/17 06:59:45;;;;;;;1.83;1.10;;;8.60;99.90;;;;;;4991355;28;20820;-60
2021/05/17 07:02:21;;;;;;;3.03;0.90;;;8.60;99.90;;;;;;4990495;28;20437;-60
2021/05/17 07:04:48;;;;;;;1.23;1.00;;;8.60;99.90;;;;;;4997847;28;20529;-60
2021/05/17 07:07:18;;;;;;;1.20;0.90;;;8.60;99.90;;;;;;4989452;28;20444;-59
2021/05/17 07:12:28;;;;;;;3.47;1.30;;;8.60;99.90;;;;;;4990650;28;20482;-59
2021/05/17 07:14:55;;;;;;;0.97;0.87;;;8.50;99.90;;;;;;4992904;28;20432;-60
2021/05/17 07:17:20;;;;;;;0.90;0.90;;;8.60;99.90;;;;;;5003922;28;20568;-59
2021/05/17 07:19:46;;;;;;;1.10;1.10;;;8.60;99.90;;;;;;5002843;28;20435;-60
2021/05/17 07:24:56;;;;;;;1.57;1.10;;;8.70;99.90;;;;;;4997881;28;20251;-60
2021/05/17 07:27:21;;;;;;;1.10;1.00;;;8.70;99.90;;;;;;4989149;28;20451;-60
2021/05/17 07:29:49;;;;;;;2.70;1.30;;;8.80;99.90;;;;;;4994382;28;20682;-60
2021/05/17 07:32:15;;;;;;;0.90;0.90;;;8.80;99.90;;;;;;4993645;28;20184;-60
2021/05/17 07:34:41;;;;;;;1.97;0.90;;;8.90;99.90;;;;;;4991749;28;20434;-59
2021/05/17 07:37:07;;;;;;;1.40;0.80;;;8.90;99.90;;;;;;4990487;28;20295;-60
2021/05/17 07:39:33;;;;;;;0.97;0.83;;;9.00;99.90;;;;;;4995435;28;20268;-59
2021/05/17 07:41:59;;;;;;;2.63;0.90;;;9.10;99.90;;;;;;4995551;28;20456;-60
2021/05/17 07:44:25;;;;;;;4.40;1.20;;;9.30;99.90;;;;;;4989274;28;20464;-61
2021/05/17 07:46:51;;;;;;;0.80;0.80;;;9.30;99.90;;;;;;4990464;28;20209;-60
2021/05/17 07:49:20;;;;;;;3.23;0.90;;;9.40;99.90;;;;;;4994864;28;20173;-60
2021/05/17 07:51:46;;;;;;;1.17;1.00;;;9.40;99.90;;;;;;4991107;28;20570;-61
2021/05/17 07:54:14;;;;;;;1.00;0.90;;;9.50;99.90;;;;;;4993450;28;20428;-60
2021/05/17 07:56:40;;;;;;;0.80;0.80;;;9.50;99.90;;;;;;4993118;28;20466;-59
2021/05/17 07:59:06;;;;;;;2.30;1.00;;;9.60;99.90;;;;;;5002214;28;20426;-60
2021/05/17 08:01:33;;;;;;;0.87;0.80;;;9.70;99.90;;;;;;5002944;28;20851;-59
2021/05/17 08:03:58;;;;;;;1.30;0.93;;;9.90;99.90;;;;;;4995634;28;20535;-62
2021/05/17 08:06:25;;;;;;;0.90;0.90;;;10.00;99.90;;;;;;4985886;28;20599;-60
2021/05/17 08:08:51;;;;;;;2.13;1.00;;;10.00;99.90;;;;;;5008124;28;20649;-60
2021/05/17 08:11:17;;;;;;;4.17;1.13;;;10.00;99.90;;;;;;5001446;28;20511;-61
2021/05/17 08:13:43;;;;;;;1.17;1.00;;;10.00;99.90;;;;;;4994999;28;20519;-61
2021/05/17 08:16:10;;;;;;;3.93;1.07;;;10.00;99.90;;;;;;5005925;28;20252;-60
2021/05/17 08:18:37;;;;;;;4.80;1.17;;;10.00;99.90;;;;;;4996491;28;20187;-61
2021/05/17 08:21:03;;;;;;;0.80;0.80;;;10.00;99.90;;;;;;4993325;28;20435;-60
2021/05/17 08:23:29;;;;;;;4.20;1.23;;;10.00;99.90;;;;;;4993740;28;20438;-60
2021/05/17 08:25:55;;;;;;;1.20;1.03;;;10.10;99.90;;;;;;4993348;28;20476;-60
2021/05/17 08:28:21;;;;;;;3.17;0.90;;;10.20;99.90;;;;;;4992004;28;20442;-59
2021/05/17 08:30:54;;;;;;;0.70;0.70;;;10.20;99.90;;;;;;4992490;28;20177;-59
2021/05/17 08:33:19;;;;;;;1.13;1.03;;;10.30;99.90;;;;;;4999652;28;20306;-60
2021/05/17 08:35:46;;;;;;;1.53;0.80;;;10.30;99.90;;;;;;5000434;28;20976;-59
2021/05/17 08:38:12;;;;;;;1.00;1.00;;;10.30;99.90;;;;;;4999011;28;20175;-59
2021/05/17 08:40:40;;;;;;;1.27;1.17;;;10.40;99.20;;;;;;5005339;28;20923;-61
2021/05/17 08:43:06;;;;;;;1.13;1.00;;;10.40;99.90;;;;;;5002703;28;20185;-59
2021/05/17 08:45:33;;;;;;;2.13;1.03;;;10.50;99.40;;;;;;4993041;28;20471;-61
2021/05/17 08:47:59;;;;;;;1.83;1.13;;;10.80;99.90;;;;;;4992868;28;20893;-60
2021/05/17 08:50:25;;;;;;;1.47;1.00;;;11.00;98.40;;;;;;4989856;28;20456;-60
2021/05/17 08:52:51;;;;;;;3.00;1.20;;;11.10;97.60;;;;;;4992785;28;21101;-61
2021/05/17 08:55:18;;;;;;;1.67;1.00;;;11.10;98.20;;;;;;4994300;28;20447;-61
2021/05/17 08:57:46;;;;;;;1.90;1.03;;;11.00;98.30;;;;;;4995213;28;21049;-60
2021/05/17 09:00:14;;;;;;;3.33;1.20;;;10.80;98.10;;;;;;5000301;28;20525;-60
2021/05/17 09:02:40;;;;;;;1.73;1.30;;;10.60;98.60;;;;;;4996967;28;20432;-60
2021/05/17 09:05:26;;;;;;;2.73;1.30;;;10.30;99.60;;;;;;4991218;28;20828;-59
2021/05/17 09:07:58;;;;;;;2.83;1.30;;;10.10;99.90;;;;;;4997048;28;20460;-58
2021/05/17 09:10:32;;;;;;;1.90;1.20;;;9.90;99.90;;;;;;4991530;28;20425;-60
2021/05/17 09:13:03;;;;;;;4.00;0.93;;;9.80;99.90;;;;;;4993868;28;20419;-61
2021/05/17 09:15:49;;;;;;;3.70;1.20;;;9.70;99.90;;;;;;5001858;28;20419;-60
2021/05/17 09:18:16;;;;;;;2.80;1.63;;;9.80;99.90;;;;;;4986441;28;20498;-60
2021/05/17 09:20:52;;;;;;;4.40;2.10;;;9.80;99.90;;;;;;4987601;28;20430;-60
2021/05/17 09:23:23;;;;;;;2.70;1.50;;;10.00;99.90;;;;;;4991000;28;20424;-60
2021/05/17 09:26:26;;;;;;;1.80;1.13;;;10.20;99.90;;;;;;4994807;28;20466;-59
2021/05/17 09:28:52;;;;;;;1.17;0.90;;;10.30;99.90;;;;;;5008342;28;20435;-60
2021/05/17 09:31:19;;;;;;;1.10;1.00;;;10.40;99.90;;;;;;5004337;28;20470;-62
2021/05/17 09:33:52;;;;;;;1.10;1.10;;;10.30;99.90;;;;;;5013405;28;20176;-61
2021/05/17 09:36:28;;;;;;;4.57;1.20;;;10.10;99.90;;;;;;5001523;28;20452;-61
2021/05/17 09:38:59;;;;;;;2.90;1.30;;;9.90;99.90;;;;;;5013869;28;20459;-60
2021/05/17 09:41:42;;;;;;;1.40;1.30;;;9.80;99.90;;;;;;5008614;28;20436;-62
2021/05/17 09:44:10;;;;;;;3.33;1.17;;;9.80;99.90;;;;;;5007452;28;20455;-60
2021/05/17 09:47:19;;;;;;;2.17;1.27;;;10.00;99.90;;;;;;5092077;27;20570;-62
2021/05/17 09:49:51;;;;;;;3.27;1.20;;;10.20;99.90;;;;;;5077786;28;20443;-61
2021/05/17 09:52:21;;;;;;;3.17;1.27;;;10.30;99.90;;;;;;5085500;28;20424;-62
2021/05/17 09:55:07;;;;;;;3.40;1.37;;;10.50;99.90;;;;;;5079882;28;20416;-62
2021/05/17 09:57:38;;;;;;;3.53;1.50;;;10.60;99.90;;;;;;5078932;28;20451;-61
2021/05/17 10:00:21;;;;;;;3.13;1.57;;;10.70;99.90;;;;;;5079580;28;20424;-62
2021/05/17 10:03:07;;;;;;;1.83;1.40;;;10.90;99.90;;;;;;5074621;28;20420;-61
2021/05/17 10:05:35;;;;;;;1.70;1.20;;;11.10;99.90;;;;;;5077441;28;20438;-61
2021/05/17 10:08:03;;;;;;;2.77;1.33;;;11.20;99.90;;;;;;5075295;28;20459;-60
2021/05/17 10:10:29;;;;;;;2.83;1.50;;;11.20;99.90;;;;;;5082760;28;20440;-61
2021/05/17 10:13:01;;;;;;;2.13;1.03;;;11.20;99.90;;;;;;5078261;28;20791;-61
2021/05/17 10:15:28;;;;;;;3.03;1.00;;;11.10;99.90;;;;;;5079148;28;20846;-62
2021/05/17 10:17:57;;;;;;;3.40;1.10;;;11.10;99.90;;;;;;5073520;28;20439;-62
2021/05/17 10:20:23;;;;;;;1.53;1.10;;;11.10;99.90;;;;;;5083073;28;20428;-60
2021/05/17 10:22:51;;;;;;;1.83;1.20;;;11.10;99.80;;;;;;5078433;28;20927;-61
2021/05/17 10:25:36;;;;;;;6.03;1.13;;;11.10;99.90;;;;;;5078274;28;20431;-62
2021/05/17 10:28:15;;;;;;;1.30;1.00;;;11.00;99.90;;;;;;5079989;28;20462;-61
2021/05/17 10:30:42;;;;;;;1.13;1.03;;;11.00;99.90;;;;;;5075844;28;20457;-61
2021/05/17 10:33:10;;;;;;;1.40;1.30;;;11.00;99.90;;;;;;5076345;28;20532;-61
2021/05/17 10:35:48;;;;;;;1.83;1.20;;;11.00;99.90;;;;;;5076661;28;20454;-62
2021/05/17 10:38:41;;;;;;;1.43;1.00;;;11.00;99.90;;;;;;5079891;28;20427;-61
2021/05/17 10:41:33;;;;;;;9.00;1.13;;;11.10;99.90;;;;;;5075881;28;20493;-62
2021/05/17 10:46:41;;;;;;;1.50;1.03;;;11.20;99.90;;;;;;5091757;28;20469;-61
2021/05/17 10:49:28;;;;;;;1.53;0.80;;;11.10;98.40;;;;;;5080816;28;20486;-60
2021/05/17 10:52:16;;;;;;;2.00;1.00;;;11.10;97.90;;;;;;5082947;28;20449;-60
2021/05/17 10:54:44;;;;;;;1.13;1.00;;;11.00;98.10;;;;;;5093861;28;20920;-61
2021/05/17 10:57:19;;;;;;;1.10;1.10;;;11.00;99.30;;;;;;5083243;28;20976;-59
2021/05/17 11:02:38;;;;;;;0.90;0.90;;;11.20;99.80;;;;;;5081825;28;20406;-61
2021/05/17 11:05:19;;;;;;;1.70;0.80;;;11.20;98.10;;;;;;5080051;28;20495;-60
2021/05/17 11:07:51;;;;;;;0.80;0.80;;;11.20;98.50;;;;;;5067313;28;20435;-60
2021/05/17 11:10:32;;;;;;;2.27;0.90;;;11.30;97.00;;;;;;5073719;28;20442;-61
2021/05/17 11:13:03;;;;;;;1.60;1.00;;;11.50;97.30;;;;;;5082534;28;20474;-59
2021/05/17 11:16:04;;;;;;;1.17;0.80;;;11.70;98.30;;;;;;5078831;28;20548;-61
2021/05/17 11:18:33;;;;;;;0.93;0.90;;;11.90;98.20;;;;;;5083103;28;20446;-60
2021/05/17 11:21:13;;;;;;;1.20;1.00;;;11.80;97.00;;;;;;5083048;28;20497;-60
2021/05/17 11:23:38;;;;;;;1.53;0.90;;;11.90;97.70;;;;;;5071568;28;20479;-61
2021/05/17 11:26:14;;;;;;;1.87;1.00;;;11.90;96.90;;;;;;5061529;28;20836;-60
2021/05/17 11:28:40;;;;;;;3.17;1.10;;;11.90;96.60;;;;;;5078356;28;20583;-60
2021/05/17 11:31:39;;;;;;;0.80;0.80;;;11.80;96.20;;;;;;5081956;28;20436;-61
2021/05/17 11:34:09;;;;;;;0.90;0.90;;;11.80;96.90;;;;;;5054448;28;20452;-61
2021/05/17 11:36:45;;;;;;;1.17;0.90;;;11.90;96.40;;;;;;5075147;28;20463;-61
2021/05/17 11:39:19;;;;;;;1.30;0.77;;;12.00;96.60;;;;;;5077445;28;21127;-60
2021/05/17 11:41:53;;;;;;;1.40;1.00;;;12.20;97.70;;;;;;5079417;28;20455;-61
2021/05/17 11:44:24;;;;;;;0.97;0.93;;;12.30;95.20;;;;;;5077471;28;20427;-61
2021/05/17 11:47:11;;;;;;;1.23;0.90;;;12.30;96.30;;;;;;5077180;28;20555;-61
2021/05/17 11:49:39;;;;;;;1.00;0.90;;;12.20;94.60;;;;;;5077166;28;20433;-60
2021/05/17 11:52:10;;;;;;;1.20;1.10;;;12.20;95.50;;;;;;5083628;28;20446;-60
2021/05/17 11:54:41;;;;;;;1.00;0.80;;;12.10;96.00;;;;;;5076350;28;20463;-60
2021/05/17 11:57:09;;;;;;;1.00;1.00;;;12.00;95.70;;;;;;5078555;28;20471;-62
2021/05/17 11:59:35;;;;;;;0.83;0.80;;;11.80;96.90;;;;;;5074704;28;20435;-61
2021/05/17 12:02:05;;;;;;;5.53;1.00;;;11.70;96.70;;;;;;5084501;28;20432;-62
2021/05/17 12:04:34;;;;;;;4.00;1.00;;;11.70;97.60;;;;;;5067666;28;20438;-62
2021/05/17 12:07:14;;;;;;;1.67;0.83;;;11.80;98.70;;;;;;5059575;28;20540;-60
2021/05/17 12:09:48;;;;;;;1.20;1.00;;;12.20;97.90;;;;;;5082685;28;20514;-61
2021/05/17 12:12:13;;;;;;;2.97;1.10;;;12.70;97.00;;;;;;5072707;28;20440;-62
2021/05/17 12:14:43;;;;;;;2.07;0.93;;;13.00;96.00;;;;;;5077389;28;20438;-62
2021/05/17 12:17:11;;;;;;;1.97;0.90;;;13.10;94.70;;;;;;5081496;28;20724;-61
2021/05/17 12:19:38;;;;;;;1.23;1.00;;;13.00;94.80;;;;;;5059482;28;20435;-60
2021/05/17 12:22:15;;;;;;;1.60;1.10;;;12.70;95.00;;;;;;5073321;28;20432;-59
2021/05/17 12:24:41;;;;;;;0.97;0.80;;;12.60;96.90;;;;;;5061043;28;20535;-62
2021/05/17 12:27:11;;;;;;;1.67;1.00;;;12.40;94.10;;;;;;5057678;28;20554;-60
2021/05/17 12:29:56;;;;;;;1.20;0.87;;;12.30;93.90;;;;;;5067820;28;20182;-62
2021/05/17 12:32:43;;;;;;;2.00;1.10;;;12.60;94.80;;;;;;5077772;28;20981;-61
2021/05/17 12:35:25;;;;;;;1.53;0.83;;;13.00;96.50;;;;;;5083470;28;20443;-60
2021/05/17 12:37:52;;;;;;;0.87;0.80;;;13.30;95.80;;;;;;5062010;28;20448;-60
2021/05/17 12:40:36;;;;;;;1.80;0.80;;;13.50;95.20;;;;;;5081212;28;20432;-60
2021/05/17 12:43:16;;;;;;;1.03;0.93;;;13.80;94.90;;;;;;5080711;28;20495;-61
2021/05/17 12:45:48;;;;;;;1.33;0.90;;;14.10;89.20;;;;;;5061385;28;20459;-61
2021/05/17 12:48:17;;;;;;;2.03;1.00;;;14.40;87.10;;;;;;5084304;28;20979;-60
2021/05/17 12:50:44;;;;;;;1.33;1.00;;;14.50;83.60;;;;;;5087254;28;20444;-60
2021/05/17 12:53:11;;;;;;;1.47;0.90;;;14.70;85.50;;;;;;5083614;28;20466;-60
2021/05/17 12:55:47;;;;;;;1.17;0.80;;;14.90;83.60;;;;;;5061226;28;20983;-61
2021/05/17 12:58:24;;;;;;;0.97;0.70;;;14.80;79.90;;;;;;5081789;28;20423;-61
2021/05/17 13:00:53;;;;;;;2.53;0.90;;;14.60;76.40;;;;;;5065842;28;21305;-63
2021/05/17 13:03:21;;;;;;;1.10;0.97;;;14.30;78.80;;;;;;5067297;28;20424;-61
2021/05/17 13:06:19;;;;;;;1.30;0.90;;;14.10;79.70;;;;;;5079323;28;20966;-61
2021/05/17 13:09:07;;;;;;;2.30;1.10;;;13.90;88.50;;;;;;5055534;28;20513;-60
2021/05/17 13:11:35;;;;;;;3.13;1.00;;;13.80;87.50;;;;;;5079915;28;20510;-61
2021/05/17 13:14:23;;;;;;;3.87;2.20;;;13.80;82.10;;;;;;5073804;28;20428;-61
2021/05/17 13:16:48;;;;;;;1.10;1.00;;;14.00;80.80;;;;;;5081886;28;20622;-60
2021/05/17 13:31:02;;;;;;;0.70;0.70;;;13.60;79.50;;;;;;5081597;28;21189;-60
2021/05/17 13:33:32;;;;;;;1.03;0.90;;;14.00;80.60;;;;;;5066819;28;20473;-59
2021/05/17 13:36:05;;;;;;;1.30;1.00;;;14.50;74.40;;;;;;5061071;28;20902;-60
2021/05/17 13:38:33;;;;;;;0.97;0.87;;;14.60;68.60;;;;;;5063956;28;20559;-60
2021/05/17 13:41:00;;;;;;;1.10;1.00;;;14.40;68.50;;;;;;5088274;28;20738;-60
2021/05/17 13:43:27;;;;;;;1.10;1.00;;;14.20;66.80;;;;;;5069597;28;20418;-61